Terminal Aerodrome Forecast
Issued by NWS

Current Version | Previous Version | Text Only | Print | Product List | Glossary Off
Versions: 1 2 3 4 5 6 7 8 9 10 11 12 13 14

000
FTUS42 KMHX 180557
TAFISO
TAF
KISO 180557Z 1806/1906 00000KT P6SM SKC
      TEMPO 1809/1812 3SM BR SCT005
     FM181400 19007KT P6SM SCT150
     FM181700 20013G19KT P6SM SCT040
      AMD LTD TO CLD VIS AND WIND=

USA.gov is the U.S. government's official web portal to all federal, state and local government web resources and services.